Time;durP1;ratioP1;P1;durP2;ratioP2;P2;SDS_P1;SDS_P2;PMS_P1;PMS_P2;Temp;Humidity;BMP_temperature;BMP_pressure;BME280_temperature;BME280_humidity;BME280_pressure;Samples;Min_cycle;Max_cycle;Signal;HPM_P1;HPM_P2
2022/04/03 00:01:29;;;;;;;12.10;6.10;;;;;6.00;96010.20;;;;110669;1251;41305;-69
2022/04/03 00:03:59;;;;;;;11.00;5.60;;;;;6.00;96011.60;;;;110705;1252;41600;-69
2022/04/03 00:06:28;;;;;;;12.50;6.20;;;;;6.00;96017.20;;;;110681;1252;41148;-67
2022/04/03 00:08:58;;;;;;;10.70;5.40;;;;;5.94;96017.20;;;;110808;1251;41474;-69
2022/04/03 00:11:29;;;;;;;12.70;5.80;;;;;6.00;96019.60;;;;110753;1251;41630;-69
2022/04/03 00:13:58;;;;;;;11.50;5.10;;;;;5.90;96012.80;;;;110769;1251;41151;-69
2022/04/03 00:16:28;;;;;;;12.80;5.60;;;;;6.00;96019.40;;;;110804;1250;41412;-69
2022/04/03 00:19:00;;;;;;;10.80;5.20;;;;;5.90;96020.80;;;;110890;1250;41275;-69
2022/04/03 00:21:29;;;;;;;;;;;;;5.90;96023.20;;;;110843;1251;41310;-69
2022/04/03 00:23:58;;;;;;;11.50;5.70;;;;;5.90;96018.20;;;;110877;1251;42168;-68
2022/04/03 00:26:28;;;;;;;13.00;6.10;;;;;5.90;96013.60;;;;110931;1250;41678;-70
2022/04/03 00:28:57;;;;;;;12.20;5.20;;;;;5.90;96014.40;;;;110790;1252;41611;-69
2022/04/03 00:31:27;;;;;;;11.50;4.90;;;;;5.90;96010.40;;;;110868;1251;41710;-69
2022/04/03 00:33:57;;;;;;;13.30;5.60;;;;;5.88;96016.00;;;;110959;1250;41698;-69
2022/04/03 00:36:27;;;;;;;12.10;6.30;;;;;5.90;96014.60;;;;110957;1250;41249;-69
2022/04/03 00:38:56;;;;;;;12.00;5.70;;;;;5.80;96010.80;;;;110924;1251;41627;-69
2022/04/03 00:41:26;;;;;;;10.70;5.00;;;;;5.80;96012.80;;;;110707;1253;41179;-69
2022/04/03 00:43:58;;;;;;;12.50;6.60;;;;;5.70;96009.20;;;;110951;1250;41161;-70
2022/04/03 00:46:29;;;;;;;12.20;5.80;;;;;5.80;96010.00;;;;110979;1251;42297;-69
2022/04/03 00:49:00;;;;;;;11.70;5.20;;;;;5.70;96014.00;;;;110952;1251;41173;-69
2022/04/03 00:51:30;;;;;;;12.80;6.00;;;;;5.70;96016.80;;;;110980;1251;41860;-68
2022/04/03 00:54:00;;;;;;;14.80;5.60;;;;;5.70;96018.40;;;;110802;1250;41145;-70
2022/04/03 00:56:31;;;;;;;12.30;5.60;;;;;5.70;96017.20;;;;110932;1251;41612;-69
2022/04/03 00:59:02;;;;;;;11.90;5.10;;;;;5.60;96011.60;;;;110929;1250;41261;-69
2022/04/03 01:01:31;;;;;;;11.30;5.10;;;;;5.60;96008.80;;;;110547;1252;41281;-69
2022/04/03 01:04:01;;;;;;;10.60;5.30;;;;;5.60;96008.20;;;;110798;1251;41776;-68
2022/04/03 01:06:31;;;;;;;10.70;5.00;;;;;5.62;96015.20;;;;110954;1249;41170;-68
2022/04/03 01:09:02;;;;;;;11.00;5.10;;;;;5.60;96016.80;;;;110929;1249;41134;-68
2022/04/03 01:11:32;;;;;;;10.70;4.70;;;;;5.52;96020.80;;;;110936;1250;41159;-69
2022/04/03 01:14:01;;;;;;;7.60;3.40;;;;;5.60;96025.00;;;;110907;1249;42000;-69
2022/04/03 01:16:30;;;;;;;8.00;3.20;;;;;5.60;96025.60;;;;110918;1251;41832;-68
2022/04/03 01:19:00;;;;;;;7.70;3.20;;;;;5.60;96029.80;;;;110849;1249;42571;-68
2022/04/03 01:21:29;;;;;;;6.90;2.70;;;;;5.62;96026.40;;;;110713;1251;41145;-69
2022/04/03 01:23:59;;;;;;;7.10;2.90;;;;;5.70;96026.20;;;;110683;1251;42475;-69
2022/04/03 01:26:29;;;;;;;6.90;2.80;;;;;5.70;96022.00;;;;110991;1250;41270;-69
2022/04/03 01:28:59;;;;;;;6.60;2.50;;;;;5.70;96022.20;;;;110931;1249;41609;-69
2022/04/03 01:31:29;;;;;;;7.50;2.70;;;;;5.76;96024.20;;;;110958;1249;41946;-69
2022/04/03 01:33:59;;;;;;;5.00;2.20;;;;;5.80;96029.20;;;;110919;1249;41364;-69
2022/04/03 01:36:28;;;;;;;6.80;2.90;;;;;5.70;96035.20;;;;110936;1251;41941;-69
2022/04/03 01:38:58;;;;;;;5.40;2.60;;;;;5.60;96037.80;;;;110727;1251;41158;-69
2022/04/03 01:41:28;;;;;;;6.40;2.70;;;;;5.52;96041.60;;;;110949;1249;41839;-69
2022/04/03 01:43:58;;;;;;;7.70;2.90;;;;;5.40;96045.20;;;;110929;1250;41907;-69
2022/04/03 01:46:28;;;;;;;6.10;2.70;;;;;5.30;96046.60;;;;110793;1251;41261;-69
2022/04/03 01:48:57;;;;;;;6.80;2.50;;;;;5.20;96045.20;;;;110949;1249;41509;-68
2022/04/03 01:51:27;;;;;;;5.00;2.20;;;;;5.10;96048.40;;;;110970;1249;41154;-69
2022/04/03 01:53:56;;;;;;;6.50;2.80;;;;;5.00;96045.80;;;;110783;1251;41271;-68
2022/04/03 01:56:27;;;;;;;5.60;2.40;;;;;4.90;96046.60;;;;110956;1249;41155;-68
2022/04/03 01:58:57;;;;;;;5.20;2.30;;;;;4.82;96047.00;;;;110915;1250;41587;-69
2022/04/03 02:01:26;;;;;;;6.20;2.50;;;;;4.72;96055.40;;;;110756;1251;41810;-68
2022/04/03 02:03:58;;;;;;;5.00;2.30;;;;;4.70;96055.80;;;;110896;1250;41152;-69
2022/04/03 02:06:28;;;;;;;5.30;2.10;;;;;4.70;96058.20;;;;110941;1250;41674;-68
2022/04/03 02:09:01;;;;;;;5.50;2.00;;;;;4.70;96058.60;;;;110943;1249;41270;-70
2022/04/03 02:11:31;;;;;;;4.90;2.10;;;;;4.60;96062.40;;;;110917;1249;41629;-68
2022/04/03 02:14:01;;;;;;;4.50;1.90;;;;;4.58;96062.20;;;;110958;1249;41252;-70
2022/04/03 02:16:31;;;;;;;4.30;1.90;;;;;4.40;96073.40;;;;110891;1251;41669;-70
2022/04/03 02:19:01;;;;;;;3.30;1.70;;;;;4.40;96066.80;;;;110926;1251;41206;-69
2022/04/03 02:21:31;;;;;;;3.00;1.70;;;;;4.30;96075.40;;;;110972;1249;41938;-69
2022/04/03 02:24:01;;;;;;;3.40;1.80;;;;;4.30;96071.00;;;;110969;1249;41372;-68
2022/04/03 02:26:33;;;;;;;3.70;1.80;;;;;4.30;96070.20;;;;110947;1249;42197;-70
2022/04/03 02:29:02;;;;;;;4.00;1.80;;;;;4.30;96070.60;;;;110841;1251;41368;-68
2022/04/03 02:31:32;;;;;;;3.50;1.60;;;;;4.30;96072.40;;;;110702;1252;41147;-69
2022/04/03 02:34:03;;;;;;;3.10;1.70;;;;;4.38;96072.00;;;;110784;1251;41246;-69
2022/04/03 02:36:33;;;;;;;2.90;1.60;;;;;4.40;96068.20;;;;110772;1251;41716;-70
2022/04/03 02:39:03;;;;;;;3.70;1.90;;;;;4.40;96072.20;;;;110913;1249;41149;-68
2022/04/03 02:41:33;;;;;;;3.60;1.90;;;;;4.48;96073.40;;;;110946;1249;41965;-68
2022/04/03 02:44:03;;;;;;;4.00;2.00;;;;;4.50;96082.00;;;;110973;1250;41625;-68
2022/04/03 02:46:33;;;;;;;3.80;2.00;;;;;4.50;96077.80;;;;110734;1251;42082;-68
2022/04/03 02:49:03;;;;;;;4.90;1.80;;;;;4.50;96076.60;;;;110738;1251;41757;-68
2022/04/03 02:51:32;;;;;;;5.30;2.20;;;;;4.50;96080.40;;;;110785;1252;41153;-68
2022/04/03 02:54:02;;;;;;;3.20;1.70;;;;;4.50;96078.60;;;;110812;1251;41156;-68
2022/04/03 02:56:32;;;;;;;3.20;1.80;;;;;4.50;96075.40;;;;110749;1251;41923;-68
2022/04/03 02:59:02;;;;;;;4.50;1.90;;;;;4.42;96071.40;;;;110923;1250;41231;-69
2022/04/03 03:01:32;;;;;;;5.30;2.30;;;;;4.40;96072.40;;;;110982;1251;41146;-68
2022/04/03 03:04:01;;;;;;;4.40;2.00;;;;;4.40;96077.60;;;;110750;1250;41154;-69
2022/04/03 03:06:30;;;;;;;4.80;2.00;;;;;4.40;96080.40;;;;110943;1250;41230;-68
2022/04/03 03:08:59;;;;;;;3.90;1.80;;;;;4.40;96079.00;;;;110933;1249;41133;-69
2022/04/03 03:11:29;;;;;;;3.30;1.80;;;;;4.40;96080.00;;;;110942;1251;42372;-68
2022/04/03 03:13:59;;;;;;;5.40;2.00;;;;;4.40;96077.20;;;;110916;1249;41147;-68
2022/04/03 03:16:29;;;;;;;4.90;2.00;;;;;4.40;96081.60;;;;110988;1249;41278;-68
2022/04/03 03:18:59;;;;;;;4.00;1.80;;;;;4.40;96082.80;;;;110762;1251;42716;-68
2022/04/03 03:21:29;;;;;;;4.60;2.00;;;;;4.40;96078.60;;;;110781;1251;41428;-68
2022/04/03 03:24:00;;;;;;;5.00;1.90;;;;;4.40;96082.00;;;;110755;1252;41172;-68
2022/04/03 03:26:30;;;;;;;4.70;2.10;;;;;4.40;96076.80;;;;110819;1251;41153;-69
2022/04/03 03:28:59;;;;;;;3.80;1.70;;;;;4.40;96077.40;;;;110944;1251;41269;-69
2022/04/03 03:31:28;;;;;;;4.10;1.90;;;;;4.40;96077.40;;;;110835;1251;42378;-68
2022/04/03 03:34:00;;;;;;;2.90;1.60;;;;;4.40;96077.60;;;;110893;1250;41165;-68
2022/04/03 03:36:30;;;;;;;5.00;2.20;;;;;4.40;96078.20;;;;111008;1250;41489;-68
2022/04/03 03:39:00;;;;;;;5.40;2.10;;;;;4.42;96079.80;;;;110969;1251;41179;-68
2022/04/03 03:41:29;;;;;;;4.60;1.90;;;;;4.40;96088.40;;;;110850;1251;41161;-69
2022/04/03 03:43:59;;;;;;;4.60;2.00;;;;;4.40;96090.40;;;;110961;1251;41831;-69
2022/04/03 03:46:29;;;;;;;5.10;2.20;;;;;4.44;96088.80;;;;111022;1249;41249;-69
2022/04/03 03:48:58;;;;;;;5.30;2.10;;;;;4.40;96091.20;;;;110819;1251;41139;-68
2022/04/03 03:51:27;;;;;;;6.40;2.80;;;;;4.40;96089.40;;;;110967;1249;41251;-68
2022/04/03 03:53:57;;;;;;;7.40;3.10;;;;;4.40;96093.20;;;;110821;1251;41250;-68
2022/04/03 03:56:27;;;;;;;8.90;3.20;;;;;4.30;96097.40;;;;110822;1251;41045;-69
2022/04/03 03:58:57;;;;;;;11.70;3.70;;;;;4.30;96100.40;;;;110813;1252;41551;-67
2022/04/03 04:01:27;;;;;;;8.50;3.60;;;;;4.24;96095.60;;;;110956;1249;41135;-69
2022/04/03 04:03:57;;;;;;;8.40;3.70;;;;;4.12;96101.20;;;;110909;1251;41149;-69
2022/04/03 04:06:26;;;;;;;8.60;3.70;;;;;4.10;96101.00;;;;110936;1249;41288;-67
2022/04/03 04:08:55;;;;;;;9.50;4.20;;;;;4.08;96104.40;;;;110952;1249;41888;-68
2022/04/03 04:11:25;;;;;;;9.60;4.40;;;;;4.10;96104.40;;;;110960;1249;42423;-69
2022/04/03 04:13:55;;;;;;;8.20;3.60;;;;;4.10;96109.00;;;;110934;1249;41267;-68
2022/04/03 04:16:24;;;;;;;8.30;3.70;;;;;4.00;96106.00;;;;110893;1249;41253;-69
2022/04/03 04:18:54;;;;;;;8.70;3.70;;;;;4.00;96108.20;;;;111033;1249;41155;-70
2022/04/03 04:21:23;;;;;;;8.40;3.60;;;;;4.08;96113.00;;;;111033;1249;41151;-70
2022/04/03 04:23:53;;;;;;;9.10;3.50;;;;;4.00;96114.60;;;;110880;1251;41985;-69
2022/04/03 04:26:22;;;;;;;8.30;3.80;;;;;4.00;96117.60;;;;110972;1251;41522;-70
2022/04/03 04:28:52;;;;;;;8.10;3.70;;;;;4.00;96115.60;;;;110844;1251;41180;-69
2022/04/03 04:31:21;;;;;;;8.90;4.20;;;;;4.00;96125.40;;;;110887;1251;41640;-69
2022/04/03 04:33:50;;;;;;;8.30;3.40;;;;;4.08;96128.40;;;;110916;1251;41154;-68
2022/04/03 04:36:19;;;;;;;9.40;3.90;;;;;4.00;96131.40;;;;110929;1250;42865;-68
2022/04/03 04:38:48;;;;;;;8.50;4.00;;;;;4.00;96130.00;;;;110976;1250;41561;-69
2022/04/03 04:41:17;;;;;;;9.50;4.30;;;;;4.00;96133.40;;;;110828;1252;41654;-68
2022/04/03 04:43:47;;;;;;;9.50;4.20;;;;;4.00;96136.20;;;;110970;1249;41165;-68
2022/04/03 04:46:16;;;;;;;8.70;3.80;;;;;4.00;96136.80;;;;110830;1251;41159;-69
2022/04/03 04:48:45;;;;;;;8.60;3.50;;;;;4.00;96141.00;;;;110961;1250;41620;-68
2022/04/03 04:51:14;;;;;;;9.30;3.80;;;;;3.90;96146.60;;;;110849;1251;41153;-69
2022/04/03 04:53:43;;;;;;;8.60;3.50;;;;;3.90;96146.40;;;;110949;1250;41349;-69
2022/04/03 04:56:12;;;;;;;8.20;3.70;;;;;3.90;96148.80;;;;110946;1249;41144;-68
2022/04/03 04:58:41;;;;;;;8.90;3.80;;;;;3.80;96152.00;;;;110913;1250;40992;-69
2022/04/03 05:01:10;;;;;;;8.20;3.70;;;;;3.86;96158.20;;;;110958;1249;41197;-68
2022/04/03 05:03:40;;;;;;;8.40;3.40;;;;;3.80;96154.60;;;;110961;1252;41140;-68
2022/04/03 05:06:12;;;;;;;8.20;3.60;;;;;3.80;96156.40;;;;110975;1250;41463;-69
2022/04/03 05:08:42;;;;;;;8.90;3.90;;;;;3.70;96165.20;;;;110966;1249;42339;-69
2022/04/03 05:11:13;;;;;;;7.80;3.30;;;;;3.72;96177.80;;;;110884;1250;41155;-69
2022/04/03 05:13:42;;;;;;;7.50;3.50;;;;;3.70;96179.80;;;;111009;1249;41153;-69
2022/04/03 05:16:11;;;;;;;9.00;3.60;;;;;3.60;96180.80;;;;110952;1250;42376;-69
2022/04/03 05:18:40;;;;;;;7.20;3.10;;;;;3.64;96182.60;;;;110961;1249;41152;-69
2022/04/03 05:21:10;;;;;;;8.00;3.20;;;;;3.60;96187.40;;;;110877;1251;41609;-69
2022/04/03 05:23:39;;;;;;;8.50;3.60;;;;;3.64;96190.20;;;;110762;1251;41176;-68
2022/04/03 05:26:10;;;;;;;10.50;3.70;;;;;3.70;96188.00;;;;110984;1249;41150;-69
2022/04/03 05:28:39;;;;;;;8.70;4.00;;;;;3.70;96189.40;;;;110992;1252;41134;-68
2022/04/03 05:31:07;;;;;;;8.10;3.40;;;;;3.70;96191.00;;;;110977;1250;42292;-69
2022/04/03 05:33:37;;;;;;;6.90;3.00;;;;;3.70;96194.40;;;;110936;1249;41847;-69
2022/04/03 05:36:06;;;;;;;11.60;4.00;;;;;3.68;96197.60;;;;110945;1249;42376;-68
2022/04/03 05:38:35;;;;;;;9.60;4.10;;;;;3.70;96196.20;;;;110911;1251;41263;-68
2022/04/03 05:41:04;;;;;;;9.30;4.30;;;;;3.60;96200.00;;;;110947;1250;41151;-69
2022/04/03 05:43:33;;;;;;;9.70;3.90;;;;;3.60;96203.80;;;;110938;1249;41902;-67
2022/04/03 05:46:02;;;;;;;10.40;4.60;;;;;3.60;96202.60;;;;110901;1249;41143;-68
2022/04/03 05:48:31;;;;;;;11.30;4.60;;;;;3.54;96205.20;;;;110783;1251;41142;-68
2022/04/03 05:51:00;;;;;;;8.60;3.90;;;;;3.60;96211.20;;;;110781;1249;41149;-67
2022/04/03 05:53:30;;;;;;;9.00;4.00;;;;;3.60;96215.80;;;;110701;1252;41258;-69
2022/04/03 05:55:59;;;;;;;10.70;4.90;;;;;3.60;96215.60;;;;110960;1249;41131;-68
2022/04/03 05:58:27;;;;;;;11.50;5.00;;;;;3.60;96214.20;;;;110924;1250;41262;-68
2022/04/03 06:00:57;;;;;;;11.50;4.40;;;;;3.60;96222.00;;;;110964;1249;41159;-68
2022/04/03 06:03:26;;;;;;;9.80;5.00;;;;;3.56;96220.20;;;;110764;1251;41337;-67
2022/04/03 06:05:55;;;;;;;10.20;4.90;;;;;3.50;96216.20;;;;110856;1249;41339;-68
2022/04/03 06:08:24;;;;;;;16.60;4.70;;;;;3.50;96221.00;;;;110812;1249;41609;-67
2022/04/03 06:10:53;;;;;;;12.90;5.80;;;;;3.40;96227.00;;;;110813;1251;41267;-68
2022/04/03 06:13:25;;;;;;;13.40;5.70;;;;;3.40;96229.20;;;;110899;1249;41277;-69
2022/04/03 06:15:53;;;;;;;13.70;5.70;;;;;3.38;96233.60;;;;110841;1250;41143;-70
2022/04/03 06:18:23;;;;;;;12.10;5.70;;;;;3.38;96236.00;;;;110985;1249;41162;-68
2022/04/03 06:20:52;;;;;;;11.40;6.00;;;;;3.40;96239.80;;;;110950;1249;41158;-69
2022/04/03 06:23:22;;;;;;;11.80;5.10;;;;;3.40;96242.80;;;;110940;1251;41538;-68
2022/04/03 06:25:56;;;;;;;12.90;6.00;;;;;3.40;96248.40;;;;110563;1251;366672;-68
2022/04/03 06:28:37;;;;;;;11.90;5.40;;;;;3.50;96249.80;;;;110967;1249;41485;-68
2022/04/03 06:31:08;;;;;;;10.90;4.90;;;;;3.40;96247.40;;;;110883;1252;41261;-69
2022/04/03 06:33:37;;;;;;;12.10;5.20;;;;;3.46;96248.00;;;;110939;1249;40802;-69
2022/04/03 06:36:06;;;;;;;10.70;5.00;;;;;3.50;96249.40;;;;110927;1249;41139;-68
2022/04/03 06:38:35;;;;;;;14.20;6.30;;;;;3.60;96248.40;;;;110974;1250;41156;-69
2022/04/03 06:41:04;;;;;;;14.60;7.00;;;;;3.52;96256.20;;;;110839;1250;41138;-69
2022/04/03 06:43:33;;;;;;;13.50;6.70;;;;;3.68;96253.00;;;;110853;1249;41614;-69
2022/04/03 06:46:05;;;;;;;13.10;5.80;;;;;3.70;96262.20;;;;110785;1249;40906;-67
2022/04/03 06:48:34;;;;;;;14.30;7.50;;;;;3.72;96269.40;;;;110947;1249;41944;-68
2022/04/03 06:51:03;;;;;;;14.30;7.10;;;;;3.68;96271.40;;;;110877;1249;41930;-69
2022/04/03 06:53:32;;;;;;;15.10;6.90;;;;;3.60;96278.20;;;;110917;1249;41913;-68
2022/04/03 06:56:00;;;;;;;15.80;7.10;;;;;3.60;96279.40;;;;110767;1251;41428;-70
2022/04/03 06:58:29;;;;;;;13.00;6.50;;;;;3.68;96281.00;;;;110843;1251;41145;-68
2022/04/03 07:00:58;;;;;;;17.30;7.20;;;;;3.60;96289.60;;;;110805;1251;41145;-69
2022/04/03 07:03:27;;;;;;;14.70;6.40;;;;;3.70;96294.00;;;;110833;1251;41249;-69
2022/04/03 07:05:57;;;;;;;15.80;7.50;;;;;3.68;96296.00;;;;110860;1250;41186;-68
2022/04/03 07:08:27;;;;;;;15.40;7.60;;;;;3.64;96293.00;;;;110766;1252;41931;-69
2022/04/03 07:10:56;;;;;;;13.50;6.20;;;;;3.58;96297.20;;;;110815;1250;41895;-68
2022/04/03 07:13:25;;;;;;;16.00;7.30;;;;;3.60;96301.60;;;;110826;1251;41627;-70
2022/04/03 07:15:54;;;;;;;14.80;6.90;;;;;3.58;96309.00;;;;110760;1251;41638;-69
2022/04/03 07:18:23;;;;;;;15.80;7.50;;;;;3.60;96308.80;;;;110824;1252;41504;-68
2022/04/03 07:20:52;;;;;;;13.70;6.90;;;;;3.56;96314.00;;;;110827;1251;41392;-68
2022/04/03 07:23:22;;;;;;;16.20;7.00;;;;;3.54;96318.20;;;;110844;1251;41997;-68
2022/04/03 07:25:51;;;;;;;13.90;7.60;;;;;3.50;96320.00;;;;110886;1250;41130;-68
2022/04/03 07:28:20;;;;;;;14.10;6.30;;;;;3.40;96327.20;;;;110950;1252;41786;-69
2022/04/03 07:30:49;;;;;;;14.00;6.90;;;;;3.40;96329.00;;;;110700;1250;41159;-69
2022/04/03 07:33:21;;;;;;;11.90;5.90;;;;;3.40;96333.60;;;;110910;1251;41140;-70
2022/04/03 07:35:49;;;;;;;14.20;7.00;;;;;3.46;96335.40;;;;110763;1252;41172;-68
2022/04/03 07:38:18;;;;;;;13.50;5.90;;;;;3.36;96341.60;;;;110947;1250;41275;-67
2022/04/03 07:40:48;;;;;;;12.40;5.70;;;;;3.34;96343.20;;;;110816;1251;41829;-70
2022/04/03 07:43:25;;;;;;;12.20;5.10;;;;;3.30;96350.20;;;;110946;1251;41134;-68
2022/04/03 07:45:54;;;;;;;10.80;4.70;;;;;3.30;96354.00;;;;110898;1250;41975;-70
2022/04/03 07:48:23;;;;;;;11.60;4.80;;;;;3.28;96359.20;;;;110879;1250;42136;-68
2022/04/03 07:50:52;;;;;;;10.10;4.60;;;;;3.20;96355.00;;;;110814;1250;41507;-68
2022/04/03 07:53:21;;;;;;;12.00;5.50;;;;;3.20;96362.60;;;;110897;1250;41449;-68
2022/04/03 07:55:50;;;;;;;10.30;4.90;;;;;3.30;96368.20;;;;110933;1251;41140;-68
2022/04/03 07:58:19;;;;;;;10.60;4.80;;;;;3.20;96371.80;;;;110928;1250;41240;-68
2022/04/03 08:00:48;;;;;;;9.70;4.50;;;;;3.10;96372.60;;;;110917;1250;41310;-68
2022/04/03 08:03:17;;;;;;;11.50;5.10;;;;;3.10;96379.40;;;;110870;1250;41145;-68
2022/04/03 08:05:46;;;;;;;9.50;4.10;;;;;3.00;96385.20;;;;110855;1250;41160;-68
2022/04/03 08:08:15;;;;;;;8.80;4.10;;;;;3.04;96387.80;;;;110671;1252;41685;-68
2022/04/03 08:10:44;;;;;;;9.50;3.80;;;;;3.12;96385.00;;;;110851;1250;41264;-68
2022/04/03 08:13:14;;;;;;;9.50;4.10;;;;;3.20;96390.00;;;;110828;1251;41381;-69
2022/04/03 08:15:43;;;;;;;8.70;3.80;;;;;3.20;96394.20;;;;110952;1250;41146;-68
2022/04/03 08:18:12;;;;;;;9.10;4.20;;;;;3.30;96393.80;;;;110916;1251;41175;-67
2022/04/03 08:20:41;;;;;;;9.90;4.50;;;;;3.40;96396.60;;;;110930;1251;41831;-68
2022/04/03 08:23:10;;;;;;;9.80;4.40;;;;;3.50;96399.60;;;;110798;1252;41328;-69
2022/04/03 08:25:39;;;;;;;10.40;4.20;;;;;3.60;96400.60;;;;110867;1251;41503;-69
2022/04/03 08:28:08;;;;;;;8.90;4.10;;;;;3.70;96399.80;;;;110856;1251;41156;-66
2022/04/03 08:30:38;;;;;;;8.70;3.50;;;;;3.80;96396.80;;;;110888;1252;41152;-68
2022/04/03 08:33:09;;;;;;;7.80;3.40;;;;;3.90;96403.80;;;;110873;1252;41324;-68
2022/04/03 08:35:40;;;;;;;9.90;4.20;;;;;4.00;96408.60;;;;110696;1251;41166;-69
2022/04/03 08:38:09;;;;;;;9.80;4.10;;;;;4.00;96405.40;;;;110888;1251;41162;-70
2022/04/03 08:40:38;;;;;;;8.80;3.60;;;;;4.10;96408.60;;;;110904;1251;41976;-68
2022/04/03 08:43:07;;;;;;;8.50;3.70;;;;;4.10;96410.80;;;;110878;1251;41153;-69
2022/04/03 08:45:37;;;;;;;8.10;3.50;;;;;4.10;96410.80;;;;110884;1251;41193;-71
2022/04/03 08:48:07;;;;;;;9.70;3.80;;;;;4.10;96415.60;;;;110946;1250;41281;-68
2022/04/03 08:50:38;;;;;;;7.10;3.20;;;;;4.10;96422.60;;;;110693;1252;41958;-69
2022/04/03 08:53:08;;;;;;;8.40;3.70;;;;;4.10;96424.20;;;;110919;1251;42375;-68
2022/04/03 08:55:37;;;;;;;7.90;3.50;;;;;4.10;96424.80;;;;110896;1250;42161;-67
2022/04/03 08:58:06;;;;;;;8.00;3.40;;;;;4.20;96428.80;;;;110824;1250;41164;-69
2022/04/03 09:00:35;;;;;;;7.90;3.20;;;;;4.30;96438.20;;;;110671;1252;41647;-71
2022/04/03 09:03:06;;;;;;;7.70;3.40;;;;;4.34;96436.20;;;;110724;1252;41003;-69
2022/04/03 09:05:40;;;;;;;7.80;3.90;;;;;4.44;96437.60;;;;110878;1251;41308;-68
2022/04/03 09:08:10;;;;;;;9.50;4.20;;;;;4.50;96438.40;;;;110842;1249;41849;-69
2022/04/03 09:10:41;;;;;;;10.90;5.40;;;;;4.60;96440.60;;;;110774;1250;41751;-68
2022/04/03 09:13:23;;;;;;;17.30;10.50;;;;;4.60;96443.00;;;;110941;1251;42355;-70
2022/04/03 09:15:52;;;;;;;17.20;8.50;;;;;4.60;96450.60;;;;110714;1251;41153;-70
2022/04/03 09:18:21;;;;;;;13.00;6.00;;;;;4.60;96450.60;;;;110890;1251;41600;-69
2022/04/03 09:20:51;;;;;;;10.40;5.30;;;;;4.60;96452.80;;;;110893;1249;41164;-69
2022/04/03 09:23:22;;;;;;;11.40;4.80;;;;;4.50;96458.40;;;;110892;1251;41136;-68
2022/04/03 09:25:52;;;;;;;23.90;9.10;;;;;4.46;96467.60;;;;110954;1250;41946;-71
2022/04/03 09:28:21;;;;;;;12.20;4.60;;;;;4.40;96479.00;;;;110950;1250;41372;-69
2022/04/03 09:30:50;;;;;;;17.50;6.60;;;;;4.30;96489.40;;;;110960;1250;41136;-69
2022/04/03 09:33:20;;;;;;;9.40;3.60;;;;;4.26;96481.80;;;;110911;1252;41153;-69
2022/04/03 09:36:03;;;;;;;10.10;3.40;;;;;4.18;96481.20;;;;110911;1251;41153;-69
2022/04/03 09:38:35;;;;;;;7.50;3.30;;;;;4.10;96485.00;;;;110714;1252;41453;-68
2022/04/03 09:41:06;;;;;;;7.70;3.30;;;;;4.00;96480.20;;;;110904;1250;41389;-70
2022/04/03 09:43:35;;;;;;;;;;;;;3.94;96489.60;;;;110663;1252;41617;-70
2022/04/03 09:46:11;;;;;;;9.80;3.40;;;;;3.80;96489.20;;;;110877;1251;41216;-68
2022/04/03 09:48:44;;;;;;;7.70;3.10;;;;;3.80;96483.80;;;;110916;1252;41156;-68
2022/04/03 09:51:23;;;;;;;10.10;4.10;;;;;3.80;96491.00;;;;110779;1252;41519;-67
2022/04/03 09:53:53;;;;;;;13.40;4.30;;;;;3.80;96494.80;;;;110727;1252;41242;-68
2022/04/03 09:56:23;;;;;;;14.50;6.00;;;;;3.80;96493.60;;;;110904;1250;41157;-68
2022/04/03 09:58:51;;;;;;;27.70;11.20;;;;;3.80;96497.60;;;;110808;1249;41377;-71
2022/04/03 10:01:26;;;;;;;32.20;11.10;;;;;3.80;96501.40;;;;110793;1250;41380;-70
2022/04/03 10:04:00;;;;;;;30.60;12.30;;;;;3.86;96509.40;;;;110888;1250;41496;-68
2022/04/03 10:06:31;;;;;;;16.10;5.90;;;;;3.90;96516.80;;;;110851;1250;41276;-68
2022/04/03 10:09:00;;;;;;;16.20;5.60;;;;;3.94;96512.20;;;;110658;1252;41712;-68
2022/04/03 10:11:29;;;;;;;9.00;4.00;;;;;3.98;96513.20;;;;110617;1254;41267;-70
2022/04/03 10:13:58;;;;;;;8.20;3.70;;;;;4.00;96518.00;;;;110847;1250;41395;-69
2022/04/03 10:16:27;;;;;;;7.80;3.60;;;;;4.00;96520.20;;;;110663;1252;41617;-71
2022/04/03 10:18:57;;;;;;;8.20;3.90;;;;;4.08;96526.40;;;;110876;1252;41365;-68
2022/04/03 10:21:50;;;;;;;8.60;3.30;;;;;4.16;96525.20;;;;110774;1251;41156;-71
2022/04/03 10:24:21;;;;;;;7.70;3.40;;;;;4.30;96531.40;;;;110927;1249;41268;-71
2022/04/03 10:27:14;;;;;;;11.40;5.00;;;;;4.40;96532.40;;;;110767;1252;41178;-68
2022/04/03 10:29:44;;;;;;;9.20;4.70;;;;;4.50;96531.40;;;;110927;1249;41343;-68
2022/04/03 10:32:27;;;;;;;9.10;4.20;;;;;4.60;96534.40;;;;110964;1250;41197;-70
2022/04/03 10:34:58;;;;;;;7.10;3.20;;;;;4.72;96540.20;;;;110946;1249;41620;-67
2022/04/03 10:37:40;;;;;;;7.00;3.10;;;;;4.80;96535.80;;;;110768;1252;41957;-67
2022/04/03 10:40:20;;;;;;;9.40;4.00;;;;;4.90;96541.00;;;;110866;1251;41316;-67
2022/04/03 10:42:58;;;;;;;10.70;4.70;;;;;4.98;96538.00;;;;110811;1251;42036;-67
2022/04/03 10:45:35;;;;;;;7.00;2.40;;;;;5.08;96542.00;;;;110787;1250;41269;-67
2022/04/03 10:48:22;;;;;;;6.00;2.60;;;;;5.20;96542.80;;;;110832;1250;41168;-67
2022/04/03 10:51:11;;;;;;;7.60;3.00;;;;;5.30;96545.00;;;;110789;1250;41150;-69
2022/04/03 10:53:41;;;;;;;6.80;3.00;;;;;5.40;96548.40;;;;110928;1250;41311;-70
2022/04/03 10:56:21;;;;;;;6.60;2.90;;;;;5.50;96551.60;;;;110800;1251;41145;-70
2022/04/03 10:58:53;;;;;;;7.20;3.00;;;;;5.60;96554.60;;;;110848;1249;42361;-69
2022/04/03 11:01:29;;;;;;;7.50;3.00;;;;;5.70;96557.00;;;;110718;1252;42398;-69
2022/04/03 11:04:13;;;;;;;7.20;3.10;;;;;5.70;96558.00;;;;110685;1252;41138;-69
2022/04/03 11:06:48;;;;;;;6.60;2.70;;;;;5.70;96561.80;;;;110731;1252;41717;-69
2022/04/03 11:09:24;;;;;;;7.30;2.80;;;;;5.70;96562.20;;;;110763;1253;41268;-68
2022/04/03 11:12:00;;;;;;;6.90;3.30;;;;;5.70;96564.40;;;;110750;1252;41162;-68
2022/04/03 11:14:55;;;;;;;8.10;3.60;;;;;5.54;96566.20;;;;110700;1253;41817;-68
2022/04/03 11:17:46;;;;;;;7.40;2.80;;;;;5.36;96570.40;;;;110705;1251;41963;-70
2022/04/03 11:20:31;;;;;;;6.30;2.70;;;;;5.10;96580.60;;;;110669;1252;41154;-68
2022/04/03 11:23:01;;;;;;;7.50;3.20;;;;;5.00;96578.00;;;;110605;1254;41293;-70
2022/04/03 11:25:30;;;;;;;7.60;3.00;;;;;5.00;96580.40;;;;110805;1252;41150;-69
2022/04/03 11:27:59;;;;;;;7.30;3.50;;;;;5.10;96585.60;;;;110730;1252;41154;-68
2022/04/03 11:30:29;;;;;;;6.90;3.00;;;;;5.10;96588.60;;;;110617;1254;41351;-70
2022/04/03 11:32:58;;;;;;;5.50;2.50;;;;;4.80;96591.80;;;;110745;1250;41143;-69
2022/04/03 11:35:37;;;;;;;9.00;3.50;;;;;4.80;96591.00;;;;110695;1252;42429;-68
2022/04/03 11:38:06;;;;;;;7.80;3.40;;;;;4.80;96595.80;;;;110766;1253;41157;-69
2022/04/03 11:40:35;;;;;;;6.10;2.70;;;;;4.70;96594.60;;;;110761;1252;41164;-69
2022/04/03 11:43:16;;;;;;;6.90;2.90;;;;;4.82;96593.00;;;;110740;1252;42355;-69
2022/04/03 11:45:56;;;;;;;6.60;3.00;;;;;5.00;96597.80;;;;110492;1253;41259;-69
2022/04/03 11:48:30;;;;;;;7.90;3.60;;;;;5.10;96604.60;;;;110722;1252;41786;-69
2022/04/03 11:51:06;;;;;;;6.90;3.30;;;;;4.98;96605.80;;;;110652;1252;42374;-69
2022/04/03 11:53:36;;;;;;;8.10;3.10;;;;;4.78;96612.60;;;;110677;1250;43430;-68
2022/04/03 11:56:06;;;;;;;8.20;3.20;;;;;4.70;96611.20;;;;110725;1252;41368;-68
2022/04/03 11:58:46;;;;;;;8.00;3.20;;;;;4.62;96613.60;;;;110685;1252;41156;-68
2022/04/03 12:01:25;;;;;;;7.30;3.50;;;;;4.70;96617.00;;;;110848;1250;41308;-68
2022/04/03 12:04:06;;;;;;;7.40;3.60;;;;;4.50;96623.80;;;;110822;1252;41373;-69
2022/04/03 12:06:37;;;;;;;8.20;3.50;;;;;4.40;96627.80;;;;110862;1250;42145;-70
2022/04/03 12:09:10;;;;;;;7.80;3.60;;;;;4.32;96628.40;;;;110876;1249;41325;-69
2022/04/03 12:11:41;;;;;;;8.10;3.40;;;;;4.30;96628.40;;;;110784;1251;41510;-69
2022/04/03 12:14:10;;;;;;;10.30;4.40;;;;;4.30;96635.40;;;;110969;1249;41591;-67
2022/04/03 12:16:40;;;;;;;8.40;3.50;;;;;4.10;96643.00;;;;110701;1252;41739;-70
2022/04/03 12:19:17;;;;;;;8.20;3.70;;;;;4.00;96641.40;;;;110701;1252;41405;-71
2022/04/03 12:21:47;;;;;;;9.10;4.10;;;;;3.88;96646.00;;;;110731;1251;41832;-70
2022/04/03 12:24:18;;;;;;;8.80;4.10;;;;;3.70;96649.80;;;;110940;1251;42213;-69
2022/04/03 12:27:00;;;;;;;9.40;4.50;;;;;3.66;96652.20;;;;110884;1249;41157;-71
2022/04/03 12:29:31;;;;;;;9.70;4.90;;;;;3.46;96647.40;;;;110782;1252;41149;-69
2022/04/03 12:32:03;;;;;;;8.10;3.80;;;;;3.40;96656.80;;;;110897;1252;42336;-69